• Join FlightAware (Why Join?)
  • Login
  • US Flag 
11:00PM EST


 

Airport Tracker/Info


-or-


 

Live Flight TrackerFlight Track Log ✈ RPA3424 ✈ 04-Aug-2014 ✈ KPIT - KLGA

Flight Track Log - Related Links

Times and Time Zones

All times are in EDT time to prevent confusion due to time zone crossing. See the RPA3424 flight status page for this flight to view local times or setup timezone preferences in your user account.

Time Position Orientation Groundspeed Altitude Reporting Facility
EDT Latitude Longitude Course Direction KTS MPH feet Rate Location/Type
06:23PM 40.5542 -80.2981 84° East 213 245 4,700  Level Cleveland Center
06:24PM 40.5936 -80.2314 52° Northeast 271 312 7,900 3,180 Climbing Cleveland Center
06:25PM 40.5230 -79.7857 84° East  Level Estimated
06:25PM 40.6031 -80.1250 83° East 293 337 11,300  Level Cleveland Center
06:26PM 40.5307 -79.6739 81° East  Level Estimated
06:26PM 40.6119 -80.0097 84° East 314 361 13,900  Level Cleveland Center
06:27PM 40.5382 -79.5621 75° East  Level Estimated
06:27PM 40.6233 -79.8711 84° East 380 437 14,000  Level Cleveland Center
06:28PM 40.5463 -79.4386 84° East  Level Estimated
06:28PM 40.6361 -79.7044 84° East 382 440 17,500  Level Cleveland Center
06:29PM 40.6461 -79.5703 84° East 371 427 20,500 2,460 Climbing Cleveland Center
06:30PM 40.6564 -79.4339 84° East 371 427 22,700 1,920 Climbing Cleveland Center
06:31PM 40.6675 -79.2906 84° East 390 449 24,500 1,200 Climbing Cleveland Center
06:32PM 40.6783 -79.1411 84° East 406 467 25,300 1,200 Climbing Cleveland Center
06:33PM 40.6892 -78.9931 84° East 408 470 27,000 780 Climbing Cleveland Center
06:34PM 40.7008 -78.8292 85° East 406 467 27,000  Level Cleveland Center
06:35PM 40.7108 -78.6811 85° East 408 470 27,000  Level Cleveland Center
06:36PM 40.7236 -78.5044 84° East 409 471 27,000  Level Cleveland Center
06:37PM 40.7336 -78.3572 85° East 410 472 27,000  Level Cleveland Center
06:38PM 40.7892 -78.2297 60° Northeast 412 474 27,000  Level Cleveland Center
06:39PM 40.8539 -78.1078 55° Northeast 412 474 27,000  Level Cleveland Center
06:40PM 40.9189 -77.9531 61° Northeast 413 475 27,000  Level Cleveland Center
06:41PM 40.9325 -77.8036 83° East 415 478 27,000  Level Cleveland Center
06:42PM 40.9447 -77.6544 84° East 414 476 27,000  Level Cleveland Center
06:43PM 40.9569 -77.5036 84° East 414 476 27,000  Level Cleveland Center
06:44PM 40.9697 -77.3531 84° East 414 476 27,000  Level Cleveland Center
06:45PM 40.9653 -77.1708 92° East 414 476 27,000  Level Cleveland Center
06:46PM 40.9586 -77.0194 93° East 415 478 27,000 -120 Level Cleveland Center
06:47PM 40.9517 -76.8683 93° East 415 478 26,800 -1,140 Descending Cleveland Center
06:49PM 40.9439 -76.7169 94° East 415 478 24,700 -2,100 Descending Cleveland Center
06:50PM 40.9311 -76.5444 96° East 412 474 22,300 -2,100 Descending New York Center
06:51PM 40.9236 -76.3956 94° East 407 468 20,200 -2,100 Descending New York Center
06:52PM 40.9175 -76.2578 93° East 390 449 18,100 -1,140 Descending New York Center
06:53PM 40.8889 -76.1125 105° East 368 423 18,000 -900 Descending New York Center
06:54PM 40.8572 -75.9811 108° East 368 423 16,300 -1,740 Descending New York Center
06:55PM 40.8308 -75.8694 107° East 368 423 14,600 -1,680 Descending New York Center
06:56PM 40.7986 -75.7464 109° East 363 418 13,000 -840 Descending New York Center
06:57PM 40.7664 -75.6153 108° East 351 404 13,000  Level New York Center
06:58PM 40.7397 -75.5039 108° East 351 404 13,000  Level New York Center
06:59PM 40.7131 -75.3842 106° East 351 404 13,000 -480 Level New York Center
07:00PM 40.6886 -75.2622 105° East 351 404 12,100 -1,020 Descending New York Center
07:01PM 40.6558 -75.1369 109° East 340 391 11,000 -1,080 Descending New York Center
07:02PM 40.5944 -75.0483 132° Southeast 324 373 10,000 -540 Descending New York Center
07:03PM 40.5542 -74.9556 120° Southeast 324 373 10,000  Level New York Center
07:04PM 40.5189 -74.8333 111° Southeast 324 373 10,000  Level New York Center
07:05PM 40.4828 -74.7247 114° Southeast 324 373 10,000  Level New York Center
07:06PM 40.4469 -74.6164 113° Southeast 324 373 10,000 -240 Level New York Center
07:07PM 40.4500 -74.4833 88° East 308 354 9,600 -1,080 Descending New York TRACON
07:08PM 40.4667 -74.3667 79° East 293 337 7,700 -1,320 Descending New York TRACON
07:09PM 40.5000 -74.2833 62° Northeast 281 323 7,000 -540 Descending New York TRACON
07:10PM 40.5333 -74.1833 66° East 283 326 6,700 -960 Descending New York TRACON
07:11PM 40.5667 -74.1000 62° Northeast 275 316 5,100 -960 Descending New York TRACON
07:13PM 40.6853 -74.0331 23° Northeast 256 295 4,000 -420 Descending New York Center
07:14PM 40.7464 -74.0142 13° North 237 273 4,000  Level New York Center
07:15PM 40.8056 -73.9814 23° Northeast 227 261 4,000 -480 Level New York Center
07:16PM 40.8667 -73.9167 39° Northeast 231 266 3,000 -420 Descending New York TRACON
07:19PM 40.9167 -73.8000 114° Southeast 187 215 2,300 -420 Descending New York TRACON
07:21PM 40.8333 -73.8333 197° South 148 170 1,000 -720 Descending New York TRACON
07:22PM 40.8000 -73.8667 217° Southwest 120 138 300 -720 Descending New York TRACON